createdAt,value
2019-02-18T00:00:41.737Z,88.36
2019-02-18T00:03:08.427Z,88.38
2019-02-18T00:05:35.708Z,87.96
2019-02-18T00:08:02.135Z,88.18
2019-02-18T00:10:29.435Z,88.47
2019-02-18T00:12:55.867Z,88.56
2019-02-18T00:15:22.342Z,88.70
2019-02-18T00:17:50.036Z,88.71
2019-02-18T00:20:16.277Z,88.39
2019-02-18T00:22:42.513Z,88.56
2019-02-18T00:25:09.072Z,89.81
2019-02-18T00:27:36.758Z,89.75
2019-02-18T00:30:03.935Z,89.52
2019-02-18T00:32:30.554Z,88.62
2019-02-18T00:34:57.519Z,88.84
2019-02-18T00:37:24.834Z,88.97
2019-02-18T00:39:51.672Z,88.85
2019-02-18T00:42:18.421Z,88.77
2019-02-18T00:44:45.121Z,88.56
2019-02-18T00:47:11.548Z,88.32
2019-02-18T00:49:38.482Z,88.42
2019-02-18T00:52:05.487Z,88.47
2019-02-18T00:54:31.929Z,88.56
2019-02-18T00:56:58.475Z,88.60
2019-02-18T00:59:24.946Z,88.76
2019-02-18T01:01:51.463Z,88.78
2019-02-18T01:04:19.196Z,88.84
2019-02-18T01:06:46.019Z,88.85
2019-02-18T01:09:12.556Z,89.07
2019-02-18T01:11:38.860Z,89.06
2019-02-18T01:14:06.110Z,89.03
2019-02-18T01:16:32.806Z,89.08
2019-02-18T01:18:59.437Z,89.16
2019-02-18T01:21:25.995Z,89.16
2019-02-18T01:23:52.593Z,89.10
2019-02-18T01:26:19.123Z,89.32
2019-02-18T01:28:45.692Z,89.35
2019-02-18T01:31:12.253Z,89.40
2019-02-18T01:33:38.751Z,89.55
2019-02-18T01:36:05.380Z,89.23
2019-02-18T01:38:31.952Z,89.20
2019-02-18T01:40:58.574Z,89.38
2019-02-18T01:43:25.260Z,89.40
2019-02-18T01:45:51.755Z,89.43
2019-02-18T01:48:18.249Z,89.44
2019-02-18T01:50:45.066Z,89.79
2019-02-18T01:53:15.056Z,90.15
2019-02-18T01:55:41.592Z,90.09
2019-02-18T01:58:08.243Z,90.27
2019-02-18T02:00:35.062Z,90.32
2019-02-18T02:03:01.792Z,90.39
2019-02-18T02:05:28.366Z,90.40
2019-02-18T02:07:56.584Z,90.32
2019-02-18T02:10:23.702Z,90.71
2019-02-18T02:12:50.897Z,90.56
2019-02-18T02:15:20.803Z,90.54
2019-02-18T02:17:47.228Z,90.70
2019-02-18T02:20:14.212Z,90.45
2019-02-18T02:22:40.808Z,90.19
2019-02-18T02:25:07.436Z,90.16
2019-02-18T02:27:33.896Z,90.16
2019-02-18T02:30:00.522Z,90.20
2019-02-18T02:32:27.072Z,90.11
2019-02-18T02:34:53.645Z,90.19
2019-02-18T02:37:20.080Z,90.46
2019-02-18T02:39:46.625Z,90.55
2019-02-18T02:42:13.188Z,90.55
2019-02-18T02:44:39.620Z,90.55
2019-02-18T02:47:06.128Z,90.67
2019-02-18T02:49:32.568Z,90.49
2019-02-18T02:55:10.309Z,90.54
2019-02-18T02:57:36.894Z,90.66
2019-02-18T03:00:11.195Z,90.87
2019-02-18T03:02:37.690Z,90.74
2019-02-18T03:05:04.293Z,90.94
2019-02-18T03:07:31.119Z,91.09
2019-02-18T03:09:59.507Z,91.10
2019-02-18T03:12:25.917Z,91.44
2019-02-18T03:14:52.935Z,91.45
2019-02-18T03:17:19.611Z,91.44
2019-02-18T03:19:47.114Z,91.65
2019-02-18T03:22:13.843Z,91.73
2019-02-18T03:25:01.094Z,91.90
2019-02-18T03:27:27.700Z,91.93
2019-02-18T03:30:10.656Z,91.97
2019-02-18T03:32:37.489Z,91.90
2019-02-18T03:35:11.561Z,92.31
2019-02-18T03:37:37.999Z,92.41
2019-02-18T03:40:04.938Z,92.38
2019-02-18T03:42:32.102Z,92.72
2019-02-18T03:44:58.639Z,92.48
2019-02-18T03:47:25.268Z,92.57
2019-02-18T03:49:52.002Z,92.77
2019-02-18T03:52:18.594Z,92.90
2019-02-18T03:54:44.872Z,93.02
2019-02-18T03:57:11.560Z,93.21
2019-02-18T03:59:38.044Z,93.42
2019-02-18T04:02:04.705Z,93.06
2019-02-18T04:04:31.486Z,93.45
2019-02-18T04:06:57.833Z,93.53
2019-02-18T04:09:24.327Z,93.64
2019-02-18T04:11:50.765Z,93.57
2019-02-18T04:14:17.303Z,93.73
2019-02-18T04:16:44.194Z,93.95
2019-02-18T04:19:10.544Z,94.02
2019-02-18T04:21:37.045Z,93.93
2019-02-18T04:24:03.386Z,94.12
2019-02-18T04:26:30.985Z,93.69
2019-02-18T04:28:57.546Z,93.42
2019-02-18T04:31:23.858Z,93.40
2019-02-18T04:33:50.488Z,92.96
2019-02-18T04:36:16.830Z,92.58
2019-02-18T04:38:53.604Z,92.84
2019-02-18T04:41:11.809Z,93.52
2019-02-18T04:43:38.374Z,92.63
2019-02-18T04:46:10.243Z,92.19
2019-02-18T04:48:40.428Z,92.45
2019-02-18T04:51:07.194Z,91.87
2019-02-18T04:53:33.807Z,91.53
2019-02-18T04:56:00.650Z,91.42
2019-02-18T04:58:27.178Z,91.51
2019-02-18T05:00:55.211Z,91.41
2019-02-18T05:03:21.709Z,91.39
2019-02-18T05:05:48.289Z,91.56
2019-02-18T05:08:16.566Z,91.53
2019-02-18T05:10:43.399Z,91.26
2019-02-18T05:13:09.764Z,91.25
2019-02-18T05:15:36.109Z,90.91
2019-02-18T05:18:02.418Z,90.99
2019-02-18T05:20:29.970Z,90.98
2019-02-18T05:22:57.015Z,90.99
2019-02-18T05:25:23.367Z,90.63
2019-02-18T05:27:50.005Z,91.20
2019-02-18T05:30:16.576Z,91.11
2019-02-18T05:32:43.272Z,91.25
2019-02-18T05:35:11.327Z,91.52
2019-02-18T05:37:38.039Z,91.24
2019-02-18T05:40:06.487Z,91.66
2019-02-18T05:42:32.976Z,91.68
2019-02-18T05:44:59.811Z,92.01
2019-02-18T05:47:26.714Z,91.71
2019-02-18T05:49:53.566Z,91.88
2019-02-18T05:52:19.793Z,92.42
2019-02-18T05:54:46.730Z,92.35
2019-02-18T05:57:13.753Z,92.46
2019-02-18T05:59:40.753Z,92.09
2019-02-18T06:02:07.426Z,92.45
2019-02-18T06:04:34.062Z,92.32
2019-02-18T06:07:00.539Z,92.35
2019-02-18T06:09:30.203Z,92.48
2019-02-18T06:11:55.444Z,92.48
2019-02-18T06:14:22.217Z,91.97
2019-02-18T06:16:48.611Z,92.37
2019-02-18T06:19:15.093Z,91.68
2019-02-18T06:21:41.778Z,91.93
2019-02-18T06:24:08.122Z,92.03
2019-02-18T06:26:34.668Z,92.34
2019-02-18T06:29:01.593Z,91.84
2019-02-18T06:31:27.857Z,91.70
2019-02-18T06:33:54.302Z,91.52
2019-02-18T06:36:20.721Z,91.48
2019-02-18T06:38:47.540Z,91.51
2019-02-18T06:41:13.864Z,90.90
2019-02-18T06:43:42.313Z,90.89
2019-02-18T06:46:16.655Z,91.06
2019-02-18T06:48:45.447Z,90.68
2019-02-18T06:51:11.839Z,90.51
2019-02-18T06:53:38.403Z,90.78
2019-02-18T06:56:04.854Z,90.31
2019-02-18T07:02:13.564Z,92.32
2019-02-18T07:04:41.843Z,91.07
2019-02-18T07:07:10.436Z,91.55
2019-02-18T07:09:50.737Z,90.76
2019-02-18T07:12:11.933Z,90.79
2019-02-18T07:14:38.378Z,90.96
2019-02-18T07:17:04.765Z,90.36
2019-02-18T07:19:31.187Z,90.37
2019-02-18T07:21:57.674Z,90.96
2019-02-18T07:26:56.167Z,90.62
2019-02-18T07:29:22.533Z,90.24
2019-02-18T07:31:49.144Z,89.45
2019-02-18T07:34:15.757Z,89.00
2019-02-18T07:36:42.141Z,89.30
2019-02-18T07:39:08.328Z,89.65
2019-02-18T07:41:34.954Z,89.01
2019-02-18T07:44:01.591Z,89.10
2019-02-18T07:46:28.278Z,88.91
2019-02-18T07:48:54.730Z,89.39
2019-02-18T07:51:21.231Z,89.07
2019-02-18T07:53:47.762Z,88.72
2019-02-18T07:56:14.347Z,88.04
2019-02-18T07:58:40.939Z,87.78
2019-02-18T08:01:07.810Z,87.40
2019-02-18T08:06:59.106Z,86.87
2019-02-18T08:09:25.904Z,86.17
2019-02-18T08:12:12.487Z,85.25
2019-02-18T08:14:45.931Z,84.99
2019-02-18T08:17:12.457Z,85.32
2019-02-18T08:19:52.202Z,85.95
2019-02-18T08:22:24.039Z,85.92
2019-02-18T08:24:50.722Z,84.93
2019-02-18T08:27:17.283Z,84.83
2019-02-18T08:29:43.926Z,84.59
2019-02-18T08:32:10.956Z,84.53
2019-02-18T08:34:37.769Z,84.18
2019-02-18T08:37:04.337Z,83.94
2019-02-18T08:39:31.229Z,83.56
2019-02-18T08:41:59.248Z,83.12
2019-02-18T08:44:26.379Z,83.00
2019-02-18T08:46:54.722Z,83.07
2019-02-18T08:49:21.477Z,83.16
2019-02-18T08:51:48.144Z,83.20
2019-02-18T08:54:14.726Z,83.82
2019-02-18T08:56:41.447Z,81.87
2019-02-18T08:59:08.283Z,81.67
2019-02-18T09:01:34.929Z,82.73
2019-02-18T09:04:01.645Z,81.75
2019-02-18T09:06:28.436Z,81.05
2019-02-18T09:08:55.299Z,80.73
2019-02-18T09:11:22.309Z,80.28
2019-02-18T09:13:49.280Z,79.20
2019-02-18T09:16:16.015Z,78.06
2019-02-18T09:18:42.781Z,77.58
2019-02-18T09:21:09.487Z,75.99
2019-02-18T09:23:40.832Z,75.21
2019-02-18T09:26:07.115Z,74.01
2019-02-18T09:28:34.139Z,73.04
2019-02-18T09:31:01.211Z,71.63
2019-02-18T09:33:27.899Z,70.78
2019-02-18T09:35:54.639Z,70.53
2019-02-18T09:38:24.846Z,68.60
2019-02-18T09:40:51.607Z,68.76
2019-02-18T09:43:18.537Z,67.73
2019-02-18T09:45:45.697Z,66.87
2019-02-18T09:48:13.014Z,67.74
2019-02-18T09:50:39.855Z,66.45
2019-02-18T09:53:06.554Z,65.65
2019-02-18T09:55:32.995Z,65.46
2019-02-18T09:57:59.394Z,66.76
2019-02-18T10:00:45.541Z,65.16
2019-02-18T10:03:18.627Z,64.42
2019-02-18T10:05:45.221Z,64.85
2019-02-18T10:08:11.714Z,64.35
2019-02-18T10:10:38.662Z,65.06
2019-02-18T10:13:05.874Z,64.69
2019-02-18T10:15:32.483Z,63.07
2019-02-18T10:17:59.141Z,63.58
2019-02-18T10:20:25.812Z,62.71
2019-02-18T10:22:52.637Z,62.90
2019-02-18T10:25:19.568Z,61.44
2019-02-18T10:27:46.121Z,61.60
2019-02-18T10:30:12.953Z,61.50
2019-02-18T10:32:39.937Z,61.16
2019-02-18T10:35:11.927Z,59.24
2019-02-18T10:37:38.871Z,58.24
2019-02-18T10:40:07.334Z,58.11
2019-02-18T10:42:34.279Z,56.78
2019-02-18T10:45:00.725Z,55.66
2019-02-18T10:47:27.351Z,54.73
2019-02-18T10:49:54.268Z,55.70
2019-02-18T10:52:22.623Z,56.86
2019-02-18T10:54:50.286Z,54.54
2019-02-18T10:57:16.983Z,54.05
2019-02-18T10:59:43.943Z,54.31
2019-02-18T11:02:11.165Z,53.96
2019-02-18T11:04:37.662Z,53.65
2019-02-18T11:07:04.379Z,53.29
2019-02-18T11:09:31.216Z,53.63
2019-02-18T11:11:57.974Z,54.25
2019-02-18T11:14:24.732Z,53.11
2019-02-18T11:16:51.892Z,53.06
2019-02-18T11:19:18.478Z,52.39
2019-02-18T11:21:45.629Z,52.40
2019-02-18T11:24:12.560Z,51.61
2019-02-18T11:26:39.401Z,52.34
2019-02-18T11:29:06.517Z,52.18
2019-02-18T11:31:34.922Z,53.54
2019-02-18T11:34:01.758Z,52.90
2019-02-18T11:36:28.705Z,55.70
2019-02-18T11:38:55.588Z,55.47
2019-02-18T11:41:27.309Z,54.51
2019-02-18T11:43:51.140Z,53.73
2019-02-18T11:46:18.382Z,53.54
2019-02-18T11:48:45.242Z,53.32
2019-02-18T11:51:11.955Z,52.67
2019-02-18T11:53:38.856Z,54.13
2019-02-18T11:56:05.771Z,54.31
2019-02-18T11:58:33.404Z,53.84
2019-02-18T12:01:01.290Z,54.25
2019-02-18T12:03:28.436Z,54.25
2019-02-18T12:05:55.340Z,54.65
2019-02-18T12:08:21.917Z,54.60
2019-02-18T12:10:48.977Z,55.01
2019-02-18T12:13:16.044Z,55.38
2019-02-18T12:15:42.795Z,54.40
2019-02-18T12:18:09.372Z,54.75
2019-02-18T12:20:36.655Z,54.69
2019-02-18T12:23:05.866Z,53.85
2019-02-18T12:25:32.777Z,54.88
2019-02-18T12:27:59.860Z,54.60
2019-02-18T12:30:26.857Z,54.02
2019-02-18T12:32:53.910Z,53.67
2019-02-18T12:35:30.211Z,54.09
2019-02-18T12:37:55.317Z,53.72
2019-02-18T12:40:18.837Z,54.06
2019-02-18T12:42:54.252Z,53.84
2019-02-18T12:45:21.141Z,54.46
2019-02-18T12:47:47.868Z,54.83
2019-02-18T12:50:14.950Z,54.53
2019-02-18T12:52:41.637Z,54.31
2019-02-18T12:55:09.275Z,53.92
2019-02-18T12:57:38.805Z,54.13
2019-02-18T13:00:08.717Z,53.77
2019-02-18T13:02:44.226Z,53.54
2019-02-18T13:05:08.810Z,53.64
2019-02-18T13:07:35.468Z,54.54
2019-02-18T13:10:05.286Z,54.38
2019-02-18T13:12:31.127Z,54.52
2019-02-18T13:14:58.165Z,55.16
2019-02-18T13:17:24.649Z,55.53
2019-02-18T13:19:51.270Z,55.03
2019-02-18T13:22:17.903Z,55.99
2019-02-18T13:24:44.707Z,56.40
2019-02-18T13:27:11.229Z,55.77
2019-02-18T13:29:37.844Z,56.23
2019-02-18T13:32:04.572Z,56.63
2019-02-18T13:34:31.984Z,54.85
2019-02-18T13:37:00.784Z,54.24
2019-02-18T13:39:28.963Z,53.35
2019-02-18T13:41:55.911Z,53.05
2019-02-18T13:44:22.445Z,53.74
2019-02-18T13:46:49.434Z,54.15
2019-02-18T13:49:16.330Z,53.73
2019-02-18T13:51:43.050Z,53.55
2019-02-18T13:54:09.974Z,53.73
2019-02-18T13:56:36.729Z,53.86
2019-02-18T13:59:03.367Z,54.76
2019-02-18T14:01:30.335Z,54.28
2019-02-18T14:03:56.846Z,55.27
2019-02-18T14:06:23.552Z,55.92
2019-02-18T14:08:50.320Z,56.98
2019-02-18T14:11:20.219Z,56.69
2019-02-18T14:13:50.057Z,55.88
2019-02-18T14:16:16.710Z,55.36
2019-02-18T14:18:43.638Z,55.42
2019-02-18T14:21:10.930Z,55.54
2019-02-18T14:23:37.430Z,55.41
2019-02-18T14:26:04.532Z,55.48
2019-02-18T14:28:31.063Z,55.81
2019-02-18T14:30:58.513Z,55.75
2019-02-18T14:33:24.930Z,55.73
2019-02-18T14:35:51.553Z,55.95
2019-02-18T14:38:18.231Z,55.32
2019-02-18T14:40:45.352Z,55.93
2019-02-18T14:43:12.090Z,55.73
2019-02-18T14:45:38.515Z,56.44
2019-02-18T14:48:06.998Z,56.79
2019-02-18T14:50:33.514Z,56.62
2019-02-18T14:53:00.237Z,58.04
2019-02-18T14:55:26.902Z,58.86
2019-02-18T14:57:53.389Z,59.42
2019-02-18T15:00:22.050Z,60.14
2019-02-18T15:02:51.463Z,60.24
2019-02-18T15:05:18.437Z,59.73
2019-02-18T15:07:45.376Z,59.90
2019-02-18T15:10:13.733Z,59.99
2019-02-18T15:12:40.494Z,60.47
2019-02-18T15:15:07.697Z,60.70
2019-02-18T15:17:34.566Z,60.46
2019-02-18T15:20:01.690Z,60.17
2019-02-18T15:22:28.408Z,60.16
2019-02-18T15:24:55.763Z,60.10
2019-02-18T15:27:22.490Z,59.72
2019-02-18T15:29:49.112Z,59.78
2019-02-18T15:32:15.575Z,59.65
2019-02-18T15:34:43.916Z,59.76
2019-02-18T15:37:10.701Z,59.63
2019-02-18T15:39:37.207Z,59.72
2019-02-18T15:42:04.293Z,60.23
2019-02-18T15:44:31.024Z,60.67
2019-02-18T15:46:57.780Z,60.93
2019-02-18T15:49:24.288Z,61.25
2019-02-18T15:51:50.886Z,61.23
2019-02-18T15:54:18.695Z,61.55
2019-02-18T15:56:45.380Z,61.71
2019-02-18T15:59:12.067Z,61.70
2019-02-18T16:01:39.212Z,61.60
2019-02-18T16:04:14.264Z,61.74
2019-02-18T16:06:42.838Z,61.97
2019-02-18T16:09:09.552Z,61.57
2019-02-18T16:11:38.748Z,61.75
2019-02-18T16:14:05.836Z,61.55
2019-02-18T16:16:32.954Z,61.42
2019-02-18T16:18:59.441Z,61.85
2019-02-18T16:21:26.273Z,61.65
2019-02-18T16:23:52.808Z,61.96
2019-02-18T16:26:19.269Z,61.97
2019-02-18T16:28:45.867Z,62.72
2019-02-18T16:31:12.662Z,62.72
2019-02-18T16:33:39.040Z,62.44
2019-02-18T16:36:05.487Z,62.85
2019-02-18T16:38:31.903Z,62.97
2019-02-18T16:40:58.428Z,63.00
2019-02-18T16:43:25.622Z,62.93
2019-02-18T16:45:52.112Z,63.07
2019-02-18T16:48:19.014Z,63.42
2019-02-18T16:50:45.320Z,63.71
2019-02-18T16:53:11.766Z,63.86
2019-02-18T16:55:38.120Z,64.87
2019-02-18T16:58:04.578Z,64.90
2019-02-18T17:03:54.107Z,65.26
2019-02-18T17:06:20.627Z,65.51
2019-02-18T17:08:47.035Z,65.81
2019-02-18T17:11:13.682Z,65.93
2019-02-18T17:13:40.184Z,66.03
2019-02-18T17:16:06.808Z,66.73
2019-02-18T17:18:33.646Z,66.89
2019-02-18T17:21:00.549Z,67.03
2019-02-18T17:23:27.616Z,67.94
2019-02-18T17:25:53.898Z,67.74
2019-02-18T17:28:20.164Z,67.93
2019-02-18T17:30:46.791Z,68.67
2019-02-18T17:33:13.251Z,68.48
2019-02-18T17:35:39.653Z,69.05
2019-02-18T17:38:06.751Z,69.55
2019-02-18T17:40:33.316Z,70.04
2019-02-18T17:42:59.913Z,70.76
2019-02-18T17:45:28.260Z,70.69
2019-02-18T17:47:54.997Z,71.40
2019-02-18T17:50:22.325Z,71.47
2019-02-18T17:52:48.904Z,71.78
2019-02-18T17:55:16.561Z,71.81
2019-02-18T17:57:42.901Z,72.21
2019-02-18T18:00:35.520Z,71.75
2019-02-18T18:03:08.584Z,71.97
2019-02-18T18:05:34.922Z,71.98
2019-02-18T18:08:01.731Z,72.19
2019-02-18T18:10:28.492Z,72.52
2019-02-18T18:12:55.079Z,72.90
2019-02-18T18:15:22.673Z,72.91
2019-02-18T18:17:49.023Z,72.53
2019-02-18T18:20:15.555Z,73.11
2019-02-18T18:22:42.131Z,73.18
2019-02-18T18:25:10.640Z,73.34
2019-02-18T18:27:37.254Z,73.74
2019-02-18T18:30:07.395Z,73.74
2019-02-18T18:32:34.111Z,73.55
2019-02-18T18:38:11.890Z,74.20
2019-02-18T18:40:38.469Z,74.07
2019-02-18T18:43:05.384Z,73.96
2019-02-18T18:45:32.969Z,74.07
2019-02-18T18:47:59.834Z,74.30
2019-02-18T18:50:26.597Z,74.27
2019-02-18T18:52:53.297Z,74.33
2019-02-18T18:55:20.081Z,74.27
2019-02-18T18:57:46.691Z,74.14
2019-02-18T19:00:23.314Z,74.04
2019-02-18T19:02:49.835Z,74.14
2019-02-18T19:05:16.765Z,74.69
2019-02-18T19:07:43.196Z,74.36
2019-02-18T19:10:10.053Z,74.12
2019-02-18T19:12:36.625Z,73.94
2019-02-18T19:15:05.705Z,73.65
2019-02-18T19:17:32.202Z,73.66
2019-02-18T19:20:01.487Z,73.30
2019-02-18T19:22:28.538Z,73.36
2019-02-18T19:24:55.283Z,73.44
2019-02-18T19:27:21.724Z,73.21
2019-02-18T19:29:48.014Z,73.07
2019-02-18T19:32:15.007Z,72.93
2019-02-18T19:34:41.426Z,72.57
2019-02-18T19:37:07.980Z,72.39
2019-02-18T19:39:34.658Z,76.61
2019-02-18T19:42:01.084Z,71.99
2019-02-18T19:44:27.490Z,71.97
2019-02-18T19:50:18.269Z,72.01
2019-02-18T19:52:44.792Z,72.17
2019-02-18T19:55:12.109Z,72.46
2019-02-18T19:57:38.541Z,72.57
2019-02-18T20:00:14.784Z,72.91
2019-02-18T20:02:41.195Z,72.88
2019-02-18T20:05:08.559Z,72.85
2019-02-18T20:07:34.808Z,72.69
2019-02-18T20:10:01.240Z,72.69
2019-02-18T20:12:53.929Z,72.46
2019-02-18T20:15:20.256Z,72.30
2019-02-18T20:17:46.563Z,72.70
2019-02-18T20:20:14.743Z,72.41
2019-02-18T20:22:41.340Z,73.01
2019-02-18T20:25:08.472Z,73.04
2019-02-18T20:27:35.154Z,73.46
2019-02-18T20:30:02.169Z,72.30
2019-02-18T20:32:28.608Z,72.82
2019-02-18T20:34:54.957Z,72.25
2019-02-18T20:37:21.717Z,72.62
2019-02-18T20:39:48.354Z,71.99
2019-02-18T20:42:14.629Z,72.45
2019-02-18T20:44:42.194Z,72.77
2019-02-18T20:47:08.981Z,72.42
2019-02-18T20:52:49.609Z,73.09
2019-02-18T20:55:16.559Z,72.77
2019-02-18T20:57:43.005Z,73.46
2019-02-18T21:00:13.852Z,72.91
2019-02-18T21:02:40.433Z,72.98
2019-02-18T21:05:06.971Z,73.80
2019-02-18T21:07:33.439Z,73.21
2019-02-18T21:09:59.749Z,72.79
2019-02-18T21:12:26.961Z,73.86
2019-02-18T21:14:53.565Z,73.34
2019-02-18T21:17:20.454Z,73.36
2019-02-18T21:19:46.907Z,74.20
2019-02-18T21:22:13.331Z,73.88
2019-02-18T21:24:39.847Z,74.91
2019-02-18T21:27:06.285Z,75.12
2019-02-18T21:29:32.968Z,76.20
2019-02-18T21:32:01.796Z,76.09
2019-02-18T21:34:28.371Z,76.44
2019-02-18T21:36:54.675Z,76.40
2019-02-18T21:39:21.052Z,76.29
2019-02-18T21:44:58.717Z,76.29
2019-02-18T21:47:25.296Z,76.25
2019-02-18T21:49:51.703Z,76.04
2019-02-18T21:52:18.221Z,76.64
2019-02-18T21:54:44.655Z,75.87
2019-02-18T21:57:11.382Z,76.11
2019-02-18T21:59:37.805Z,75.42
2019-02-18T22:02:04.588Z,75.25
2019-02-18T22:04:31.046Z,75.01
2019-02-18T22:06:57.526Z,75.23
2019-02-18T22:09:23.959Z,75.59
2019-02-18T22:15:02.219Z,76.44
2019-02-18T22:17:28.737Z,76.07
2019-02-18T22:19:54.924Z,75.42
2019-02-18T22:22:21.438Z,75.91
2019-02-18T22:24:49.334Z,76.39
2019-02-18T22:30:50.776Z,75.94
2019-02-18T22:33:17.294Z,75.27
2019-02-18T22:35:43.651Z,75.33
2019-02-18T22:38:10.081Z,75.45
2019-02-18T22:40:36.574Z,75.83
2019-02-18T22:43:02.799Z,75.46
2019-02-18T22:45:29.332Z,75.79
2019-02-18T22:47:56.200Z,76.21
2019-02-18T22:50:22.663Z,75.77
2019-02-18T22:52:49.375Z,75.91
2019-02-18T22:55:18.755Z,75.53
2019-02-18T22:57:45.184Z,75.72
2019-02-18T23:00:31.531Z,75.74
2019-02-18T23:02:57.934Z,75.78
2019-02-18T23:05:24.284Z,75.72
2019-02-18T23:07:50.735Z,75.86
2019-02-18T23:10:18.027Z,75.87
2019-02-18T23:12:44.390Z,76.35
2019-02-18T23:15:10.812Z,76.48
2019-02-18T23:17:37.410Z,76.41
2019-02-18T23:20:04.272Z,76.07
2019-02-18T23:22:31.064Z,76.23
2019-02-18T23:24:57.463Z,75.94
2019-02-18T23:27:24.023Z,75.85
2019-02-18T23:29:50.244Z,75.28
2019-02-18T23:32:16.602Z,75.43
2019-02-18T23:34:42.911Z,75.91
2019-02-18T23:37:09.266Z,75.85
2019-02-18T23:39:35.700Z,76.31
2019-02-18T23:42:02.222Z,76.38
2019-02-18T23:44:28.445Z,75.68
2019-02-18T23:46:54.849Z,75.75
2019-02-18T23:49:21.130Z,76.34
2019-02-18T23:51:47.466Z,76.01
2019-02-18T23:54:13.857Z,76.26
2019-02-18T23:56:40.439Z,76.45
2019-02-18T23:59:06.557Z,76.65
